Buoy 51788

sailwx.info

Track history (hours):
 
Tides and Currents Weather Stations Pressure Air Temp Water Temp Dewpoint Dewpoint Depression Visibility Wind Speed Wind Dir Waves Ship Positions

Drifting buoy 51788

Last reported at 2018-Jun-24 16:00 UTC. Time now 2018-Jun-24 16:43 UTC.
Position N 34°17' E 166°42'.

Water temperature 21.3 ° C

Date/timePositionNaut miles runAvg speedWind from/ knotsBaromVisibWave heightAir tempDewpointWater temp
2018-Jun-24 16:00N 34°17' E 166°42'0 0.0 21.3
2018-Jun-24 11:00N 34°17' E 166°42'1 0.6 21.5
2018-Jun-24 10:00N 34°18' E 166°42'0 0.0 21.5
2018-Jun-24 09:00N 34°18' E 166°42'0 0.5 21.5
2018-Jun-24 08:00N 34°18' E 166°41'1 0.4 21.6
2018-Jun-24 06:00N 34°19' E 166°42'0 0.0 21.7
2018-Jun-24 05:00N 34°19' E 166°42'1 0.8 21.8
2018-Jun-24 04:00N 34°19' E 166°43'0 0.5 21.7
2018-Jun-24 03:00N 34°19' E 166°42'5 1.3 21.6
2018-Jun-23 23:00N 34°24' E 166°44'1 1.3 21.2
2018-Jun-23 22:00N 34°25' E 166°45'0 0.0 21.2
2018-Jun-23 21:00N 34°25' E 166°45'3 3.0 21.1
2018-Jun-23 20:00N 34°28' E 166°44'1 1.3 21.1
2018-Jun-23 19:00N 34°29' E 166°45'0 0.0 21.1
2018-Jun-23 18:00N 34°29' E 166°45'2 2.4 21.1
2018-Jun-23 17:00N 34°32' E 166°45'1110.8 21.1
2018-Jun-23 16:00N 34°43' E 166°44'1010.2 21.2
2018-Jun-23 15:00N 34°32' E 166°44'11 2.3 21.2
2018-Jun-23 10:00N 34°44' E 166°45'2 2.5 21.5
2018-Jun-23 09:00N 34°46' E 166°44'4 1.8 21.5
2018-Jun-23 07:00N 34°50' E 166°44'2 2.4 21.6
2018-Jun-23 06:00N 34°52' E 166°43'1 0.6 21.7
2018-Jun-23 05:00N 34°53' E 166°43'9 9.3 21.8
2018-Jun-23 04:00N 35°01' E 166°38'0 0.0 21.7
2018-Jun-23 03:00N 35°01' E 166°38'1 0.4 21.7
2018-Jun-23 00:00N 35°02' E 166°37'0 0.0 21.5
2018-Jun-22 23:00N 35°02' E 166°37'2 2.3 21.2
2018-Jun-22 22:00N 35°04' E 166°35'1 0.8 21.1
2018-Jun-22 21:00N 35°04' E 166°35'5 1.8 21.0
2018-Jun-22 18:00N 35°09' E 166°32'0 0.0 21.0
2018-Jun-22 17:00N 35°09' E 166°32'6 6.1 21.0
2018-Jun-22 16:00N 35°14' E 166°28'2 0.4 21.0
2018-Jun-22 10:00N 35°17' E 166°28'1 0.8 21.0
2018-Jun-22 09:00N 35°17' E 166°28'2 1.5 21.0
2018-Jun-22 08:00N 35°19' E 166°26'0 0.0 21.0
2018-Jun-22 07:00N 35°19' E 166°26'1 0.6 21.0
2018-Jun-22 06:00N 35°19' E 166°26'2 2.0 21.0
2018-Jun-22 05:00N 35°21' E 166°25'0 0.0 21.0
2018-Jun-22 04:00N 35°21' E 166°25'0 0.5 21.0
2018-Jun-22 03:00N 35°21' E 166°25'6 1.1 21.0
2018-Jun-21 22:00N 35°26' E 166°22'1 1.1 21.0
2018-Jun-21 21:00N 35°27' E 166°21'1 0.6 21.0
2018-Jun-21 19:00N 35°28' E 166°21'0 0.5 21.0
2018-Jun-21 18:00N 35°28' E 166°22'1 1.3 21.0
2018-Jun-21 17:00N 35°29' E 166°21'5 5.2 21.0
2018-Jun-21 16:00N 35°34' E 166°19'1 0.1 21.0
2018-Jun-21 11:00N 35°35' E 166°19'1 1.2 20.9
2018-Jun-21 10:00N 35°36' E 166°19'1 0.8 20.9
2018-Jun-21 09:00N 35°37' E 166°18'1 0.8 20.9
2018-Jun-21 08:00N 35°37' E 166°17'2 2.3 20.9
2018-Jun-21 07:00N 35°38' E 166°15'2 1.9 20.9
2018-Jun-21 06:00N 35°40' E 166°13'0 0.0 20.9
2018-Jun-21 05:00N 35°40' E 166°13'0 0.0 20.9
2018-Jun-21 04:00N 35°40' E 166°13'5 1.0 21.0
2018-Jun-20 23:00N 35°42' E 166°08'1 0.7 20.9
2018-Jun-20 21:00N 35°42' E 166°06'1 0.6 20.9
2018-Jun-20 19:00N 35°43' E 166°06'1 0.8 20.9
2018-Jun-20 18:00N 35°44' E 166°05'9 8.7 20.9
2018-Jun-20 17:00N 35°49' E 165°56'0 0.0 20.9
2018-Jun-20 16:00N 35°49' E 165°56'1 0.2 20.9
2018-Jun-20 10:00N 35°49' E 165°55'1 0.6 20.9
2018-Jun-20 09:00N 35°49' E 165°55'2 2.0 20.9
2018-Jun-20 08:00N 35°50' E 165°53'1 0.8 21.0
2018-Jun-20 07:00N 35°50' E 165°52'0 0.0 21.0
2018-Jun-20 06:00N 35°50' E 165°52'2 0.8 21.0
2018-Jun-20 04:00N 35°51' E 165°50'6 1.1 21.0
2018-Jun-19 23:00N 35°53' E 165°44'0 0.5 21.0
2018-Jun-19 22:00N 35°53' E 165°43'1 1.1 21.1
2018-Jun-19 21:00N 35°53' E 165°42'2 1.0 21.0
2018-Jun-19 19:00N 35°54' E 165°40'0 0.0 21.0
2018-Jun-19 18:00N 35°54' E 165°40'9 9.5 21.0
2018-Jun-19 17:00N 35°59' E 165°30'0 0.0 21.0
2018-Jun-19 16:00N 35°59' E 165°30'0 0.1 21.0
2018-Jun-19 11:00N 35°59' E 165°29'2 1.6 21.0
2018-Jun-19 10:00N 36°00' E 165°28'1 1.0 21.0
2018-Jun-19 09:00N 36°00' E 165°26'2 2.4 21.0
2018-Jun-19 08:00N 36°00' E 165°23'3 1.5 21.0
2018-Jun-19 06:00N 36°01' E 165°20'0 0.0 21.1
2018-Jun-19 05:00N 36°01' E 165°20'0 0.5 21.1
2018-Jun-19 04:00N 36°01' E 165°20'6 5.9 21.1
2018-Jun-19 03:00N 36°01' E 165°13'4 3.9 21.1
2018-Jun-19 02:00N 36°01' E 165°18'4 2.0 21.0
2018-Jun-19 00:00N 36°01' E 165°13'0 0.0 21.0
2018-Jun-18 23:00N 36°01' E 165°13'5 2.3 21.0
2018-Jun-18 21:00N 36°02' E 165°08'0 0.0 20.9
2018-Jun-18 20:00N 36°02' E 165°08'3 3.0 20.9
2018-Jun-18 19:00N 36°03' E 165°04'0 0.0 20.9
2018-Jun-18 18:00N 36°03' E 165°04'1212.2 20.9
2018-Jun-18 17:00N 36°04' E 164°49'1312.6 20.9
2018-Jun-18 16:00N 36°04' E 165°05'13 2.5 20.9
2018-Jun-18 11:00N 36°04' E 164°49'1 1.0 21.0
2018-Jun-18 10:00N 36°04' E 164°48'1 1.0 21.0
2018-Jun-18 09:00N 36°04' E 164°47'2 2.0 21.0
2018-Jun-18 08:00N 36°04' E 164°44'0 0.5 20.9
2018-Jun-18 07:00N 36°04' E 164°44'2 1.9 20.9
2018-Jun-18 06:00N 36°04' E 164°41'3 1.7 20.9
2018-Jun-18 04:00N 36°04' E 164°37'1 0.6 20.9
2018-Jun-18 03:00N 36°04' E 164°37'1 0.6 20.8
2018-Jun-18 02:00N 36°04' E 164°37'5 2.7 20.5
2018-Jun-18 00:00N 36°03' E 164°31'2 0.8 20.1
2018-Jun-17 22:00N 36°02' E 164°29'2 0.8 20.1
2018-Jun-17 20:00N 36°01' E 164°28'0 0.0 20.5
2018-Jun-17 19:00N 36°01' E 164°28'0 0.5 20.7
2018-Jun-17 18:00N 36°01' E 164°28'3 2.8 20.8
2018-Jun-17 17:00N 35°59' E 164°26'0 0.0 20.8
2018-Jun-17 11:00N 35°59' E 164°26'0 0.0 20.9
2018-Jun-17 10:00N 35°59' E 164°26'0 0.0 20.9
2018-Jun-17 09:00N 35°59' E 164°26'2 1.8 20.9
2018-Jun-17 08:00N 35°57' E 164°26'1 0.3 20.9
2018-Jun-17 05:00N 35°56' E 164°26'1 1.1 20.9
2018-Jun-17 04:00N 35°56' E 164°25'4 4.2 21.0
2018-Jun-17 03:00N 35°53' E 164°21'4 4.2 21.1
2018-Jun-17 02:00N 35°56' E 164°25'5 2.6 21.1
2018-Jun-17 00:00N 35°52' E 164°21'0 0.0 20.8
2018-Jun-16 23:00N 35°52' E 164°21'3 2.8 20.9
2018-Jun-16 22:00N 35°49' E 164°19'0 0.0 20.9
2018-Jun-16 20:00N 35°49' E 164°19'0 0.0 20.9
2018-Jun-16 19:00N 35°49' E 164°19'1 0.8 20.8
2018-Jun-16 18:00N 35°49' E 164°19'1 1.0 20.8
2018-Jun-16 17:00N 35°49' E 164°17'6 5.6 20.7
2018-Jun-16 16:00N 35°47' E 164°11'6 5.6 20.7
2018-Jun-16 15:00N 35°49' E 164°17'7 1.7 20.8
2018-Jun-16 11:00N 35°46' E 164°10'1 0.8 20.8
2018-Jun-16 10:00N 35°46' E 164°09'1 1.1 20.8
2018-Jun-16 09:00N 35°45' E 164°08'1 1.3 20.9
2018-Jun-16 08:00N 35°44' E 164°07'1 0.6 20.9
2018-Jun-16 07:00N 35°43' E 164°07'2 0.9 20.9
2018-Jun-16 05:00N 35°42' E 164°05'1 0.8 20.9
2018-Jun-16 04:00N 35°41' E 164°05'3 2.5 20.9
2018-Jun-16 03:00N 35°42' E 164°02'1 0.3 20.9
2018-Jun-16 00:00N 35°41' E 164°02'2 1.9 20.8
2018-Jun-15 23:00N 35°41' E 164°00'0 0.5 20.8
2018-Jun-15 22:00N 35°41' E 163°59'1 0.8 20.8
2018-Jun-15 21:00N 35°41' E 163°59'2 2.0 20.8
2018-Jun-15 20:00N 35°40' E 163°56'0 0.0 20.6
2018-Jun-15 19:00N 35°40' E 163°56'1 1.0 20.5
2018-Jun-15 18:00N 35°40' E 163°55'0 0.5 20.5
2018-Jun-15 17:00N 35°40' E 163°55'9 8.7 20.4
2018-Jun-15 16:00N 35°35' E 163°46'0 0.0 20.4
2018-Jun-15 11:00N 35°35' E 163°46'1 1.2 20.2
2018-Jun-15 10:00N 35°34' E 163°46'2 1.9 20.2
2018-Jun-15 09:00N 35°32' E 163°44'1 0.2 20.1
2018-Jun-15 06:00N 35°32' E 163°44'1 1.1 20.1
2018-Jun-15 05:00N 35°32' E 163°43'1 0.8 20.2
2018-Jun-15 04:00N 35°32' E 163°43'3 2.7 20.2
2018-Jun-15 03:00N 35°33' E 163°40'0 0.1 20.1
2018-Jun-14 23:00N 35°33' E 163°39'0 0.5 20.2
2018-Jun-14 22:00N 35°33' E 163°38'3 1.1 20.2
2018-Jun-14 19:00N 35°34' E 163°35'1 1.0 20.4
2018-Jun-14 18:00N 35°34' E 163°34'0 0.0 20.4
2018-Jun-14 17:00N 35°34' E 163°34'4 3.9 20.4
2018-Jun-14 16:00N 35°34' E 163°29'   20.4
Track history (hours):
 
Tides and Currents Weather Stations Pressure Air Temp Water Temp Dewpoint Dewpoint Depression Visibility Wind Speed Wind Dir Waves Ship Positions

Drifting buoy 51788

Last reported at 2018-Jun-24 16:00 UTC. Time now 2018-Jun-24 16:43 UTC.
Position N 34°17' E 166°42'.

Water temperature 21.3 ° C

Date/timePositionNaut miles runAvg speedWind from/ knotsBaromVisibWave heightAir tempDewpointWater temp
2018-Jun-24 16:00N 34°17' E 166°42'0 0.0 21.3
2018-Jun-24 11:00N 34°17' E 166°42'1 0.6 21.5
2018-Jun-24 10:00N 34°18' E 166°42'0 0.0 21.5
2018-Jun-24 09:00N 34°18' E 166°42'0 0.5 21.5
2018-Jun-24 08:00N 34°18' E 166°41'1 0.4 21.6
2018-Jun-24 06:00N 34°19' E 166°42'0 0.0 21.7
2018-Jun-24 05:00N 34°19' E 166°42'1 0.8 21.8
2018-Jun-24 04:00N 34°19' E 166°43'0 0.5 21.7
2018-Jun-24 03:00N 34°19' E 166°42'5 1.3 21.6
2018-Jun-23 23:00N 34°24' E 166°44'1 1.3 21.2
2018-Jun-23 22:00N 34°25' E 166°45'0 0.0 21.2
2018-Jun-23 21:00N 34°25' E 166°45'3 3.0 21.1
2018-Jun-23 20:00N 34°28' E 166°44'1 1.3 21.1
2018-Jun-23 19:00N 34°29' E 166°45'0 0.0 21.1
2018-Jun-23 18:00N 34°29' E 166°45'2 2.4 21.1
2018-Jun-23 17:00N 34°32' E 166°45'1110.8 21.1
2018-Jun-23 16:00N 34°43' E 166°44'1010.2 21.2
2018-Jun-23 15:00N 34°32' E 166°44'11 2.3 21.2
2018-Jun-23 10:00N 34°44' E 166°45'2 2.5 21.5
2018-Jun-23 09:00N 34°46' E 166°44'4 1.8 21.5
2018-Jun-23 07:00N 34°50' E 166°44'2 2.4 21.6
2018-Jun-23 06:00N 34°52' E 166°43'1 0.6 21.7
2018-Jun-23 05:00N 34°53' E 166°43'9 9.3 21.8
2018-Jun-23 04:00N 35°01' E 166°38'0 0.0 21.7
2018-Jun-23 03:00N 35°01' E 166°38'1 0.4 21.7
2018-Jun-23 00:00N 35°02' E 166°37'0 0.0 21.5
2018-Jun-22 23:00N 35°02' E 166°37'2 2.3 21.2
2018-Jun-22 22:00N 35°04' E 166°35'1 0.8 21.1
2018-Jun-22 21:00N 35°04' E 166°35'5 1.8 21.0
2018-Jun-22 18:00N 35°09' E 166°32'0 0.0 21.0
2018-Jun-22 17:00N 35°09' E 166°32'6 6.1 21.0
2018-Jun-22 16:00N 35°14' E 166°28'2 0.4 21.0
2018-Jun-22 10:00N 35°17' E 166°28'1 0.8 21.0
2018-Jun-22 09:00N 35°17' E 166°28'2 1.5 21.0
2018-Jun-22 08:00N 35°19' E 166°26'0 0.0 21.0
2018-Jun-22 07:00N 35°19' E 166°26'1 0.6 21.0
2018-Jun-22 06:00N 35°19' E 166°26'2 2.0 21.0
2018-Jun-22 05:00N 35°21' E 166°25'0 0.0 21.0
2018-Jun-22 04:00N 35°21' E 166°25'0 0.5 21.0
2018-Jun-22 03:00N 35°21' E 166°25'6 1.1 21.0
2018-Jun-21 22:00N 35°26' E 166°22'1 1.1 21.0
2018-Jun-21 21:00N 35°27' E 166°21'1 0.6 21.0
2018-Jun-21 19:00N 35°28' E 166°21'0 0.5 21.0
2018-Jun-21 18:00N 35°28' E 166°22'1 1.3 21.0
2018-Jun-21 17:00N 35°29' E 166°21'5 5.2 21.0
2018-Jun-21 16:00N 35°34' E 166°19'1 0.1 21.0
2018-Jun-21 11:00N 35°35' E 166°19'1 1.2 20.9
2018-Jun-21 10:00N 35°36' E 166°19'1 0.8 20.9
2018-Jun-21 09:00N 35°37' E 166°18'1 0.8 20.9
2018-Jun-21 08:00N 35°37' E 166°17'2 2.3 20.9
2018-Jun-21 07:00N 35°38' E 166°15'2 1.9 20.9
2018-Jun-21 06:00N 35°40' E 166°13'0 0.0 20.9
2018-Jun-21 05:00N 35°40' E 166°13'0 0.0 20.9
2018-Jun-21 04:00N 35°40' E 166°13'5 1.0 21.0
2018-Jun-20 23:00N 35°42' E 166°08'1 0.7 20.9
2018-Jun-20 21:00N 35°42' E 166°06'1 0.6 20.9
2018-Jun-20 19:00N 35°43' E 166°06'1 0.8 20.9
2018-Jun-20 18:00N 35°44' E 166°05'9 8.7 20.9
2018-Jun-20 17:00N 35°49' E 165°56'0 0.0 20.9
2018-Jun-20 16:00N 35°49' E 165°56'1 0.2 20.9
2018-Jun-20 10:00N 35°49' E 165°55'1 0.6 20.9
2018-Jun-20 09:00N 35°49' E 165°55'2 2.0 20.9
2018-Jun-20 08:00N 35°50' E 165°53'1 0.8 21.0
2018-Jun-20 07:00N 35°50' E 165°52'0 0.0 21.0
2018-Jun-20 06:00N 35°50' E 165°52'2 0.8 21.0
2018-Jun-20 04:00N 35°51' E 165°50'6 1.1 21.0
2018-Jun-19 23:00N 35°53' E 165°44'0 0.5 21.0
2018-Jun-19 22:00N 35°53' E 165°43'1 1.1 21.1
2018-Jun-19 21:00N 35°53' E 165°42'2 1.0 21.0
2018-Jun-19 19:00N 35°54' E 165°40'0 0.0 21.0
2018-Jun-19 18:00N 35°54' E 165°40'9 9.5 21.0
2018-Jun-19 17:00N 35°59' E 165°30'0 0.0 21.0
2018-Jun-19 16:00N 35°59' E 165°30'0 0.1 21.0
2018-Jun-19 11:00N 35°59' E 165°29'2 1.6 21.0
2018-Jun-19 10:00N 36°00' E 165°28'1 1.0 21.0
2018-Jun-19 09:00N 36°00' E 165°26'2 2.4 21.0
2018-Jun-19 08:00N 36°00' E 165°23'3 1.5 21.0
2018-Jun-19 06:00N 36°01' E 165°20'0 0.0 21.1
2018-Jun-19 05:00N 36°01' E 165°20'0 0.5 21.1
2018-Jun-19 04:00N 36°01' E 165°20'6 5.9 21.1
2018-Jun-19 03:00N 36°01' E 165°13'4 3.9 21.1
2018-Jun-19 02:00N 36°01' E 165°18'4 2.0 21.0
2018-Jun-19 00:00N 36°01' E 165°13'0 0.0 21.0
2018-Jun-18 23:00N 36°01' E 165°13'5 2.3 21.0
2018-Jun-18 21:00N 36°02' E 165°08'0 0.0 20.9
2018-Jun-18 20:00N 36°02' E 165°08'3 3.0 20.9
2018-Jun-18 19:00N 36°03' E 165°04'0 0.0 20.9
2018-Jun-18 18:00N 36°03' E 165°04'1212.2 20.9
2018-Jun-18 17:00N 36°04' E 164°49'1312.6 20.9
2018-Jun-18 16:00N 36°04' E 165°05'13 2.5 20.9
2018-Jun-18 11:00N 36°04' E 164°49'1 1.0 21.0
2018-Jun-18 10:00N 36°04' E 164°48'1 1.0 21.0
2018-Jun-18 09:00N 36°04' E 164°47'2 2.0 21.0
2018-Jun-18 08:00N 36°04' E 164°44'0 0.5 20.9
2018-Jun-18 07:00N 36°04' E 164°44'2 1.9 20.9
2018-Jun-18 06:00N 36°04' E 164°41'3 1.7 20.9
2018-Jun-18 04:00N 36°04' E 164°37'1 0.6 20.9
2018-Jun-18 03:00N 36°04' E 164°37'1 0.6 20.8
2018-Jun-18 02:00N 36°04' E 164°37'5 2.7 20.5
2018-Jun-18 00:00N 36°03' E 164°31'2 0.8 20.1
2018-Jun-17 22:00N 36°02' E 164°29'2 0.8 20.1
2018-Jun-17 20:00N 36°01' E 164°28'0 0.0 20.5
2018-Jun-17 19:00N 36°01' E 164°28'0 0.5 20.7
2018-Jun-17 18:00N 36°01' E 164°28'3 2.8 20.8
2018-Jun-17 17:00N 35°59' E 164°26'0 0.0 20.8
2018-Jun-17 11:00N 35°59' E 164°26'0 0.0 20.9
2018-Jun-17 10:00N 35°59' E 164°26'0 0.0 20.9
2018-Jun-17 09:00N 35°59' E 164°26'2 1.8 20.9
2018-Jun-17 08:00N 35°57' E 164°26'1 0.3 20.9
2018-Jun-17 05:00N 35°56' E 164°26'1 1.1 20.9
2018-Jun-17 04:00N 35°56' E 164°25'4 4.2 21.0
2018-Jun-17 03:00N 35°53' E 164°21'4 4.2 21.1
2018-Jun-17 02:00N 35°56' E 164°25'5 2.6 21.1
2018-Jun-17 00:00N 35°52' E 164°21'0 0.0 20.8
2018-Jun-16 23:00N 35°52' E 164°21'3 2.8 20.9
2018-Jun-16 22:00N 35°49' E 164°19'0 0.0 20.9
2018-Jun-16 20:00N 35°49' E 164°19'0 0.0 20.9
2018-Jun-16 19:00N 35°49' E 164°19'1 0.8 20.8
2018-Jun-16 18:00N 35°49' E 164°19'1 1.0 20.8
2018-Jun-16 17:00N 35°49' E 164°17'6 5.6 20.7
2018-Jun-16 16:00N 35°47' E 164°11'6 5.6 20.7
2018-Jun-16 15:00N 35°49' E 164°17'7 1.7 20.8
2018-Jun-16 11:00N 35°46' E 164°10'1 0.8 20.8
2018-Jun-16 10:00N 35°46' E 164°09'1 1.1 20.8
2018-Jun-16 09:00N 35°45' E 164°08'1 1.3 20.9
2018-Jun-16 08:00N 35°44' E 164°07'1 0.6 20.9
2018-Jun-16 07:00N 35°43' E 164°07'2 0.9 20.9
2018-Jun-16 05:00N 35°42' E 164°05'1 0.8 20.9
2018-Jun-16 04:00N 35°41' E 164°05'3 2.5 20.9
2018-Jun-16 03:00N 35°42' E 164°02'1 0.3 20.9
2018-Jun-16 00:00N 35°41' E 164°02'2 1.9 20.8
2018-Jun-15 23:00N 35°41' E 164°00'0 0.5 20.8
2018-Jun-15 22:00N 35°41' E 163°59'1 0.8 20.8
2018-Jun-15 21:00N 35°41' E 163°59'2 2.0 20.8
2018-Jun-15 20:00N 35°40' E 163°56'0 0.0 20.6
2018-Jun-15 19:00N 35°40' E 163°56'1 1.0 20.5
2018-Jun-15 18:00N 35°40' E 163°55'0 0.5 20.5
2018-Jun-15 17:00N 35°40' E 163°55'9 8.7 20.4
2018-Jun-15 16:00N 35°35' E 163°46'0 0.0 20.4
2018-Jun-15 11:00N 35°35' E 163°46'1 1.2 20.2
2018-Jun-15 10:00N 35°34' E 163°46'2 1.9 20.2
2018-Jun-15 09:00N 35°32' E 163°44'1 0.2 20.1
2018-Jun-15 06:00N 35°32' E 163°44'1 1.1 20.1
2018-Jun-15 05:00N 35°32' E 163°43'1 0.8 20.2
2018-Jun-15 04:00N 35°32' E 163°43'3 2.7 20.2
2018-Jun-15 03:00N 35°33' E 163°40'0 0.1 20.1
2018-Jun-14 23:00N 35°33' E 163°39'0 0.5 20.2
2018-Jun-14 22:00N 35°33' E 163°38'3 1.1 20.2
2018-Jun-14 19:00N 35°34' E 163°35'1 1.0 20.4
2018-Jun-14 18:00N 35°34' E 163°34'0 0.0 20.4
2018-Jun-14 17:00N 35°34' E 163°34'4 3.9 20.4
2018-Jun-14 16:00N 35°34' E 163°29'   20.4

Dump ship's entire track history